Time;durP1;ratioP1;P1;durP2;ratioP2;P2;SDS_P1;SDS_P2;PMS_P1;PMS_P2;Temp;Humidity;BMP_temperature;BMP_pressure;BME280_temperature;BME280_humidity;BME280_pressure;Samples;Min_cycle;Max_cycle;Signal;HPM_P1;HPM_P2
2022/10/06 00:00:26;;;;;;;27.48;14.65;;;6.80;99.90;;;;;;5032891;28;20033;-69
2022/10/06 00:02:52;;;;;;;25.92;14.55;;;6.80;99.90;;;;;;5033020;28;20030;-74
2022/10/06 00:05:18;;;;;;;29.13;16.73;;;6.80;99.90;;;;;;5015001;28;20033;-74
2022/10/06 00:07:43;;;;;;;26.98;15.15;;;6.80;99.90;;;;;;5032923;28;20053;-74
2022/10/06 00:10:09;;;;;;;25.83;15.68;;;6.80;99.90;;;;;;5015025;28;20064;-69
2022/10/06 00:12:44;;;;;;;27.15;15.07;;;6.80;99.90;;;;;;5032833;28;20080;-71
2022/10/06 00:15:11;;;;;;;32.72;17.40;;;6.80;99.90;;;;;;5032730;28;20038;-73
2022/10/06 00:17:37;;;;;;;26.30;14.70;;;6.90;99.90;;;;;;5032717;28;20036;-70
2022/10/06 00:20:03;;;;;;;26.33;14.50;;;6.90;99.90;;;;;;5032802;28;20045;-73
2022/10/06 00:22:37;;;;;;;31.70;15.43;;;6.90;99.90;;;;;;5032841;28;20098;-69
2022/10/06 00:25:03;;;;;;;30.63;16.50;;;7.00;99.90;;;;;;5032651;28;20109;-69
2022/10/06 00:27:37;;;;;;;31.15;18.00;;;7.20;99.90;;;;;;5032580;28;20036;-70
2022/10/06 00:30:06;;;;;;;34.15;18.05;;;7.30;99.90;;;;;;5032603;28;20056;-73
2022/10/06 00:32:31;;;;;;;33.22;18.67;;;7.40;99.90;;;;;;5032601;28;20029;-73
2022/10/06 00:35:00;;;;;;;42.63;20.52;;;7.60;99.90;;;;;;5032393;28;20033;-70
2022/10/06 00:37:27;;;;;;;39.85;20.73;;;7.70;99.90;;;;;;5035966;28;20033;-73
2022/10/06 00:39:53;;;;;;;33.60;18.83;;;7.80;99.90;;;;;;5018436;28;20025;-68
2022/10/06 00:42:27;;;;;;;43.72;22.45;;;7.90;99.90;;;;;;5036126;28;20040;-70
2022/10/06 00:44:53;;;;;;;39.67;20.05;;;8.00;99.90;;;;;;5036177;28;20030;-69
2022/10/06 00:47:23;;;;;;;46.25;19.58;;;8.10;99.90;;;;;;5018352;28;20037;-73
2022/10/06 00:49:49;;;;;;;40.50;21.55;;;8.10;99.90;;;;;;5036137;28;20083;-74
2022/10/06 00:52:20;;;;;;;32.58;17.77;;;8.10;99.90;;;;;;5018219;28;20063;-69
2022/10/06 00:54:46;;;;;;;37.22;18.15;;;8.10;99.90;;;;;;5035920;28;20091;-74
2022/10/06 00:57:12;;;;;;;41.17;19.40;;;8.10;99.90;;;;;;5035922;28;20021;-71
2022/10/06 00:59:39;;;;;;;33.75;18.55;;;8.10;99.90;;;;;;5035902;28;20060;-73
2022/10/06 01:02:26;;;;;;;40.42;18.55;;;8.10;99.90;;;;;;5035687;28;20082;-73
2022/10/06 01:04:56;;;;;;;37.13;18.75;;;8.20;99.90;;;;;;5035834;28;20021;-69
2022/10/06 01:07:24;;;;;;;37.53;17.67;;;8.20;99.90;;;;;;5035755;28;20029;-73
2022/10/06 01:09:50;;;;;;;35.95;18.33;;;8.30;99.90;;;;;;5035809;28;20517;-69
2022/10/06 01:12:16;;;;;;;36.95;19.35;;;8.30;99.90;;;;;;5035664;28;20025;-74
2022/10/06 01:14:42;;;;;;;28.80;18.17;;;8.30;99.90;;;;;;5035460;28;20503;-73
2022/10/06 01:17:22;;;;;;;40.67;21.23;;;8.30;99.90;;;;;;5035590;28;20026;-73
2022/10/06 01:20:16;;;;;;;33.20;18.42;;;8.30;99.90;;;;;;5035440;28;20079;-69
2022/10/06 01:22:45;;;;;;;35.63;18.80;;;8.30;99.90;;;;;;5032418;28;20384;-73
2022/10/06 01:25:16;;;;;;;61.22;19.95;;;8.20;99.90;;;;;;5035413;28;20501;-73
2022/10/06 01:27:52;;;;;;;34.72;19.15;;;8.20;99.90;;;;;;5035241;28;20104;-69
2022/10/06 01:30:44;;;;;;;29.95;17.52;;;8.20;99.90;;;;;;5035395;28;20025;-70
2022/10/06 01:33:10;;;;;;;28.50;17.40;;;8.20;99.90;;;;;;4998114;28;20033;-69
2022/10/06 01:35:36;;;;;;;27.60;18.02;;;8.10;99.90;;;;;;5015338;28;20030;-73
2022/10/06 01:38:01;;;;;;;35.50;18.42;;;8.10;99.90;;;;;;5034041;28;20368;-69
2022/10/06 01:40:28;;;;;;;32.40;17.33;;;8.10;99.90;;;;;;5034813;28;20061;-74
2022/10/06 01:42:54;;;;;;;30.00;16.63;;;8.00;99.90;;;;;;5035160;28;20079;-74
2022/10/06 01:45:20;;;;;;;28.63;16.58;;;8.00;99.90;;;;;;5035122;28;20112;-74
2022/10/06 01:47:46;;;;;;;25.00;15.95;;;8.00;99.90;;;;;;5035081;28;20109;-74
2022/10/06 01:50:12;;;;;;;31.92;16.70;;;7.90;99.90;;;;;;5035092;28;20029;-69
2022/10/06 01:52:37;;;;;;;22.13;13.40;;;7.90;99.90;;;;;;5034922;28;20112;-74
2022/10/06 01:55:04;;;;;;;21.35;12.73;;;7.80;99.90;;;;;;5034856;28;20029;-69
2022/10/06 01:57:29;;;;;;;24.40;14.05;;;7.80;99.90;;;;;;5034770;28;20033;-70
2022/10/06 01:59:55;;;;;;;21.92;13.85;;;7.70;99.90;;;;;;5034781;28;20490;-69
2022/10/06 02:02:21;;;;;;;21.13;11.85;;;7.70;99.90;;;;;;5034915;28;20029;-70
2022/10/06 02:04:47;;;;;;;21.52;12.48;;;7.60;99.90;;;;;;5016948;28;20036;-74
2022/10/06 02:07:12;;;;;;;18.98;12.00;;;7.60;99.90;;;;;;5016783;28;20399;-73
2022/10/06 02:09:38;;;;;;;21.85;11.82;;;7.60;99.90;;;;;;5034773;28;20022;-69
2022/10/06 02:12:04;;;;;;;22.40;12.73;;;7.50;99.90;;;;;;5034424;28;20399;-70
2022/10/06 02:14:31;;;;;;;19.60;11.63;;;7.50;99.90;;;;;;5034678;28;20041;-73
2022/10/06 02:16:57;;;;;;;19.33;11.68;;;7.40;99.90;;;;;;5034474;28;20067;-69
2022/10/06 02:19:22;;;;;;;17.45;11.25;;;7.40;99.90;;;;;;5034570;28;20030;-73
2022/10/06 02:21:48;;;;;;;19.25;11.80;;;7.30;99.90;;;;;;5034385;28;20123;-73
2022/10/06 02:24:14;;;;;;;21.67;11.73;;;7.30;99.90;;;;;;5034451;28;20101;-69
2022/10/06 02:26:39;;;;;;;23.80;13.95;;;7.30;99.90;;;;;;5034323;28;20041;-70
2022/10/06 02:29:05;;;;;;;20.55;12.90;;;7.30;99.90;;;;;;5034338;28;20128;-69
2022/10/06 02:31:31;;;;;;;24.27;12.77;;;7.30;99.90;;;;;;5033994;28;20025;-70
2022/10/06 02:33:57;;;;;;;24.13;14.43;;;7.30;99.90;;;;;;5016296;28;20116;-73
2022/10/06 02:36:23;;;;;;;19.65;12.30;;;7.30;99.90;;;;;;5034049;28;20022;-73
2022/10/06 02:38:49;;;;;;;22.65;12.73;;;7.20;99.90;;;;;;5034097;28;20021;-69
2022/10/06 02:41:14;;;;;;;20.38;12.90;;;7.20;99.90;;;;;;5033759;28;20028;-70
2022/10/06 02:43:40;;;;;;;18.10;11.25;;;7.20;99.90;;;;;;5016407;28;20014;-69
2022/10/06 02:46:10;;;;;;;24.35;12.75;;;7.10;99.90;;;;;;5033890;28;20033;-73
2022/10/06 02:48:36;;;;;;;19.23;11.25;;;7.10;99.90;;;;;;5016179;28;20547;-69
2022/10/06 02:51:07;;;;;;;20.13;12.40;;;7.10;99.90;;;;;;5033855;28;20116;-69
2022/10/06 02:53:34;;;;;;;19.92;13.00;;;7.00;99.90;;;;;;5033703;28;20438;-74
2022/10/06 02:56:09;;;;;;;17.48;11.05;;;7.00;99.90;;;;;;5033717;28;20033;-69
2022/10/06 02:58:35;;;;;;;17.38;10.85;;;6.90;99.90;;;;;;5033348;28;20026;-73
2022/10/06 03:01:06;;;;;;;20.67;11.90;;;6.90;99.90;;;;;;5033734;28;20018;-69
2022/10/06 03:03:33;;;;;;;18.77;12.02;;;6.90;99.90;;;;;;5033604;28;20029;-73
2022/10/06 03:06:01;;;;;;;24.83;12.63;;;6.80;99.90;;;;;;5015947;28;20532;-73
2022/10/06 03:08:27;;;;;;;17.67;11.65;;;6.80;99.90;;;;;;5033505;28;20053;-73
2022/10/06 03:11:02;;;;;;;22.15;11.82;;;6.80;99.90;;;;;;5033517;28;20122;-73
2022/10/06 03:13:29;;;;;;;24.98;12.38;;;6.80;99.90;;;;;;5033449;28;20049;-69
2022/10/06 03:15:55;;;;;;;24.55;13.57;;;6.70;99.90;;;;;;5033661;28;20032;-72
2022/10/06 03:18:21;;;;;;;19.90;13.40;;;6.70;99.90;;;;;;5033253;28;20030;-70
2022/10/06 03:20:47;;;;;;;19.10;11.98;;;6.70;99.90;;;;;;5033299;28;20046;-69
2022/10/06 03:23:13;;;;;;;22.83;12.32;;;6.60;99.90;;;;;;5032899;28;20079;-73
2022/10/06 03:25:38;;;;;;;24.08;12.60;;;6.60;99.90;;;;;;5033414;28;20025;-69
2022/10/06 03:28:04;;;;;;;23.67;12.30;;;6.60;99.90;;;;;;5015360;28;20499;-70
2022/10/06 03:30:29;;;;;;;21.73;11.90;;;6.60;99.90;;;;;;5033467;28;20037;-73
2022/10/06 03:32:55;;;;;;;17.55;11.30;;;6.60;99.90;;;;;;5033164;28;20021;-69
2022/10/06 03:35:21;;;;;;;17.73;10.93;;;6.60;99.90;;;;;;5033209;28;20049;-69
2022/10/06 03:37:46;;;;;;;20.02;11.57;;;6.50;99.90;;;;;;5033216;28;20097;-69
2022/10/06 03:40:13;;;;;;;17.27;12.00;;;6.50;99.90;;;;;;5033304;28;20029;-69
2022/10/06 03:42:39;;;;;;;15.77;11.13;;;6.50;99.90;;;;;;5033127;28;20022;-69
2022/10/06 03:45:05;;;;;;;20.15;11.15;;;6.40;99.90;;;;;;5033158;28;20076;-69
2022/10/06 03:47:30;;;;;;;17.40;11.38;;;6.40;99.90;;;;;;5032889;28;20045;-69
2022/10/06 03:49:56;;;;;;;19.80;11.45;;;6.40;99.90;;;;;;5033085;28;20056;-70
2022/10/06 03:52:21;;;;;;;17.10;10.57;;;6.40;99.90;;;;;;5032943;28;20029;-70
2022/10/06 03:54:47;;;;;;;16.17;10.07;;;6.40;99.90;;;;;;5015282;28;20040;-73
2022/10/06 03:57:13;;;;;;;15.63;9.63;;;6.30;99.90;;;;;;5032863;28;20041;-75
2022/10/06 03:59:38;;;;;;;17.17;10.88;;;6.30;99.90;;;;;;5032977;28;20379;-73
2022/10/06 04:02:04;;;;;;;14.43;9.57;;;6.20;99.90;;;;;;5032686;28;20030;-69
2022/10/06 04:04:30;;;;;;;15.93;10.35;;;6.20;99.90;;;;;;5015242;28;20435;-74
2022/10/06 04:06:56;;;;;;;14.93;9.65;;;6.20;99.90;;;;;;5032661;28;20028;-74
2022/10/06 04:09:21;;;;;;;12.63;9.95;;;6.20;99.90;;;;;;5032811;28;20122;-73
2022/10/06 04:11:47;;;;;;;15.95;10.13;;;6.10;99.90;;;;;;5035546;28;20468;-73
2022/10/06 04:14:14;;;;;;;13.23;9.43;;;6.10;99.90;;;;;;5045302;28;20049;-73
2022/10/06 04:16:41;;;;;;;12.45;8.73;;;6.00;99.90;;;;;;5036776;28;20025;-74
2022/10/06 04:19:09;;;;;;;21.35;10.63;;;6.00;99.90;;;;;;5018618;28;20041;-70
2022/10/06 04:21:36;;;;;;;14.85;9.48;;;6.00;99.90;;;;;;5036716;28;20057;-69
2022/10/06 04:24:02;;;;;;;16.85;8.60;;;5.90;99.90;;;;;;5036188;28;20021;-69
2022/10/06 04:26:35;;;;;;;14.80;10.25;;;5.80;99.90;;;;;;5036588;28;20025;-74
2022/10/06 04:29:01;;;;;;;11.38;7.80;;;5.80;99.90;;;;;;5027097;28;20108;-70
2022/10/06 04:31:35;;;;;;;12.45;7.80;;;5.70;99.90;;;;;;5041393;28;20073;-69
2022/10/06 04:34:01;;;;;;;14.52;8.32;;;5.70;99.90;;;;;;5018465;28;20565;-74
2022/10/06 04:36:30;;;;;;;16.55;8.60;;;5.60;99.90;;;;;;5036424;28;20014;-69
2022/10/06 04:38:58;;;;;;;15.38;9.13;;;5.60;99.90;;;;;;5036098;28;20104;-73
2022/10/06 04:41:30;;;;;;;13.52;8.15;;;5.60;99.90;;;;;;5036204;28;20032;-69
2022/10/06 04:43:55;;;;;;;13.30;8.73;;;5.50;99.90;;;;;;5037324;28;20032;-69
2022/10/06 04:46:23;;;;;;;18.55;9.30;;;5.50;99.90;;;;;;5054151;28;20025;-74
2022/10/06 04:48:52;;;;;;;13.80;8.35;;;5.50;99.90;;;;;;5041014;28;20060;-69
2022/10/06 04:51:19;;;;;;;16.15;9.00;;;5.50;99.90;;;;;;5036047;28;20018;-70
2022/10/06 04:53:45;;;;;;;15.63;9.68;;;5.40;99.90;;;;;;5035633;28;20033;-73
2022/10/06 04:56:13;;;;;;;13.80;9.70;;;5.40;99.90;;;;;;5018327;28;20022;-70
2022/10/06 04:58:41;;;;;;;19.77;9.98;;;5.30;99.90;;;;;;5035718;28;20391;-69
2022/10/06 05:01:18;;;;;;;18.08;9.75;;;5.30;99.90;;;;;;5018327;28;20391;-69
2022/10/06 05:03:45;;;;;;;13.02;8.60;;;5.30;99.90;;;;;;5035606;28;20029;-69
2022/10/06 05:06:15;;;;;;;19.70;9.23;;;5.30;99.90;;;;;;5035504;28;20034;-70
2022/10/06 05:08:42;;;;;;;18.10;9.63;;;5.30;99.90;;;;;;5035243;28;20029;-69
2022/10/06 05:11:09;;;;;;;14.55;9.18;;;5.30;99.90;;;;;;5035528;28;20025;-70
2022/10/06 05:13:36;;;;;;;29.27;12.45;;;5.30;99.90;;;;;;5035368;28;22376;-72
2022/10/06 05:16:05;;;;;;;24.95;12.93;;;5.30;99.90;;;;;;5035276;28;20029;-69
2022/10/06 05:18:32;;;;;;;20.20;10.38;;;5.30;99.90;;;;;;5025349;28;20032;-69
2022/10/06 05:21:02;;;;;;;22.23;11.48;;;5.30;99.90;;;;;;5034036;28;20053;-69
2022/10/06 05:23:29;;;;;;;25.08;11.38;;;5.40;99.90;;;;;;5032954;28;20032;-69
2022/10/06 05:25:56;;;;;;;17.50;10.27;;;5.40;99.90;;;;;;5033887;28;20033;-69
2022/10/06 05:28:23;;;;;;;16.80;10.35;;;5.40;99.90;;;;;;5016149;28;20017;-69
2022/10/06 05:30:58;;;;;;;20.77;12.52;;;5.50;99.90;;;;;;5033496;28;20095;-73
2022/10/06 05:33:25;;;;;;;18.15;10.30;;;5.50;99.90;;;;;;5033902;28;20026;-73
2022/10/06 05:35:53;;;;;;;18.90;10.73;;;5.60;99.90;;;;;;5027907;28;20454;-74
2022/10/06 05:38:18;;;;;;;18.20;11.13;;;5.60;99.90;;;;;;5031984;28;20021;-73
2022/10/06 05:40:44;;;;;;;16.58;10.23;;;5.60;99.90;;;;;;5031244;28;20117;-74
2022/10/06 05:43:10;;;;;;;20.05;10.90;;;5.70;99.90;;;;;;5042435;28;20096;-69
2022/10/06 05:45:35;;;;;;;15.65;10.85;;;5.80;99.90;;;;;;5033651;28;20037;-73
2022/10/06 05:48:01;;;;;;;17.40;10.93;;;5.90;99.90;;;;;;5032776;28;20018;-70
2022/10/06 05:50:26;;;;;;;19.45;10.50;;;5.90;99.90;;;;;;5032172;28;20030;-69
2022/10/06 05:52:54;;;;;;;18.52;12.38;;;6.00;99.90;;;;;;5034126;28;20100;-70
2022/10/06 05:55:19;;;;;;;19.55;11.43;;;6.10;99.90;;;;;;5033916;28;20053;-69
2022/10/06 05:57:45;;;;;;;20.52;13.40;;;6.20;99.90;;;;;;5032863;28;20071;-69
2022/10/06 06:00:11;;;;;;;20.40;14.02;;;6.30;99.90;;;;;;5033977;28;20033;-69
2022/10/06 06:02:36;;;;;;;24.08;13.02;;;6.40;99.90;;;;;;5034063;28;20061;-70
2022/10/06 06:05:03;;;;;;;22.25;11.60;;;6.60;99.90;;;;;;5034047;28;20025;-71
2022/10/06 06:07:29;;;;;;;22.30;11.65;;;6.80;99.90;;;;;;5034487;28;20026;-73
2022/10/06 06:09:54;;;;;;;19.35;11.85;;;7.00;99.90;;;;;;5034444;28;20048;-74
2022/10/06 06:12:20;;;;;;;21.73;12.90;;;7.30;99.90;;;;;;5016766;28;20036;-69
2022/10/06 06:17:31;;;;;;;23.95;16.85;;;7.80;99.90;;;;;;5034761;28;20419;-73
2022/10/06 06:19:56;;;;;;;23.30;13.70;;;8.10;99.90;;;;;;5034428;28;20032;-69
2022/10/06 06:22:22;;;;;;;22.75;13.90;;;8.40;99.90;;;;;;5016458;28;20022;-74
2022/10/06 06:24:48;;;;;;;21.38;13.40;;;8.60;99.90;;;;;;5032206;28;20395;-74
2022/10/06 06:27:14;;;;;;;26.80;13.55;;;8.90;99.90;;;;;;5032049;28;20021;-70
2022/10/06 06:29:39;;;;;;;29.83;13.88;;;9.10;99.90;;;;;;5032640;28;20041;-73
2022/10/06 06:32:07;;;;;;;18.92;13.38;;;9.40;99.90;;;;;;5015053;28;20025;-74
2022/10/06 06:34:32;;;;;;;19.38;11.82;;;9.60;99.90;;;;;;5013906;28;20128;-73
2022/10/06 06:36:58;;;;;;;19.13;10.88;;;9.90;99.90;;;;;;5032877;28;20528;-69
2022/10/06 06:39:24;;;;;;;20.27;12.20;;;10.20;99.90;;;;;;5016039;28;20061;-74
2022/10/06 06:41:50;;;;;;;19.65;10.15;;;10.50;99.90;;;;;;5034066;28;20026;-69
2022/10/06 06:44:16;;;;;;;15.25;10.25;;;10.80;99.90;;;;;;5033732;28;20037;-69
2022/10/06 06:46:45;;;;;;;12.65;9.18;;;11.00;99.90;;;;;;5034278;28;20021;-74
2022/10/06 06:49:11;;;;;;;12.27;8.00;;;11.30;99.90;;;;;;5015961;28;20029;-69
2022/10/06 06:51:40;;;;;;;11.00;8.13;;;11.60;99.90;;;;;;5034074;28;20383;-70
2022/10/06 06:54:06;;;;;;;13.20;8.25;;;11.90;99.90;;;;;;5033732;28;20049;-68
2022/10/06 06:56:37;;;;;;;11.00;7.68;;;12.10;99.90;;;;;;5033874;28;20030;-69
2022/10/06 06:59:10;;;;;;;10.13;7.53;;;12.30;99.90;;;;;;5033796;28;20079;-73
2022/10/06 07:01:45;;;;;;;12.07;8.98;;;12.40;99.90;;;;;;5034091;28;20079;-74
2022/10/06 07:04:13;;;;;;;15.07;9.07;;;12.70;99.90;;;;;;5033687;28;20025;-70
2022/10/06 07:06:39;;;;;;;10.68;8.93;;;12.80;99.90;;;;;;5033639;28;20395;-69
2022/10/06 07:09:05;;;;;;;11.75;6.68;;;12.80;99.90;;;;;;5015948;28;20112;-69
2022/10/06 07:11:34;;;;;;;9.63;7.53;;;12.80;99.90;;;;;;5033663;28;20105;-74
2022/10/06 07:14:02;;;;;;;10.27;7.07;;;12.90;99.90;;;;;;5033376;28;20056;-69
2022/10/06 07:25:06;;;;;;;9.47;6.50;;;13.50;99.90;;;;;;5033567;28;20102;-74
2022/10/06 07:27:41;;;;;;;11.15;6.97;;;13.70;99.90;;;;;;5015595;28;20026;-74
2022/10/06 07:30:11;;;;;;;14.32;7.07;;;13.90;99.90;;;;;;5033248;28;20025;-69
2022/10/06 07:32:37;;;;;;;10.35;6.78;;;14.10;99.90;;;;;;5033473;28;20475;-69
2022/10/06 07:35:05;;;;;;;11.93;7.03;;;14.30;99.90;;;;;;5033087;28;20099;-69
2022/10/06 07:37:33;;;;;;;10.40;7.70;;;14.40;99.90;;;;;;5033410;28;20049;-74
2022/10/06 07:39:59;;;;;;;16.50;7.82;;;14.50;99.90;;;;;;5032706;28;20437;-68
2022/10/06 07:42:25;;;;;;;10.90;8.18;;;14.40;99.90;;;;;;5033325;28;20030;-69
2022/10/06 07:47:37;;;;;;;11.38;7.13;;;14.40;99.90;;;;;;5033589;28;20084;-69
2022/10/06 07:50:04;;;;;;;13.00;7.63;;;14.40;99.90;;;;;;5032834;28;20049;-74
2022/10/06 07:52:30;;;;;;;12.07;7.00;;;14.60;99.90;;;;;;5033048;28;20025;-69
2022/10/06 07:54:57;;;;;;;11.50;7.75;;;14.80;99.90;;;;;;5015199;28;20480;-74
2022/10/06 07:57:25;;;;;;;11.93;8.32;;;14.90;99.90;;;;;;5015424;28;20487;-73
2022/10/06 07:59:51;;;;;;;14.43;8.43;;;15.00;99.90;;;;;;5032840;28;20033;-74
2022/10/06 08:02:18;;;;;;;13.65;7.40;;;15.20;99.90;;;;;;5032962;28;20032;-74
2022/10/06 08:04:43;;;;;;;12.98;8.25;;;15.30;99.90;;;;;;5033059;28;20040;-74
2022/10/06 08:07:11;;;;;;;10.93;7.53;;;15.30;99.90;;;;;;5033000;28;20026;-69
2022/10/06 08:09:37;;;;;;;10.23;6.85;;;15.30;99.90;;;;;;5032938;28;20124;-69
2022/10/06 08:12:31;;;;;;;18.13;7.75;;;15.30;99.90;;;;;;5032917;28;20057;-69
2022/10/06 08:14:48;;;;;;;11.77;6.60;;;15.40;99.90;;;;;;5032489;28;20092;-74
2022/10/06 08:17:13;;;;;;;16.98;7.18;;;15.30;99.90;;;;;;5032947;28;20025;-70
2022/10/06 08:19:39;;;;;;;12.95;6.95;;;15.40;99.90;;;;;;5032823;28;20515;-69
2022/10/06 08:22:05;;;;;;;13.20;6.45;;;15.50;99.90;;;;;;5014945;28;20127;-69
2022/10/06 08:24:30;;;;;;;14.57;7.53;;;15.50;99.90;;;;;;5032723;28;20053;-74
2022/10/06 08:26:56;;;;;;;10.93;6.55;;;15.60;99.90;;;;;;5032797;28;20068;-73
2022/10/06 08:29:21;;;;;;;8.55;6.30;;;15.70;99.90;;;;;;5014926;28;20406;-74
2022/10/06 08:31:47;;;;;;;7.75;6.03;;;15.80;99.90;;;;;;5032800;28;20044;-69
2022/10/06 08:34:12;;;;;;;9.85;6.47;;;15.90;99.90;;;;;;5032549;28;20116;-74
2022/10/06 08:36:38;;;;;;;8.07;4.95;;;16.10;99.90;;;;;;5015056;28;20026;-74
2022/10/06 08:39:06;;;;;;;9.85;5.35;;;16.10;99.90;;;;;;5032609;28;20025;-68
2022/10/06 08:41:31;;;;;;;8.90;5.25;;;16.10;99.90;;;;;;5032498;28;20517;-69
2022/10/06 08:44:17;;;;;;;7.13;4.45;;;16.20;99.90;;;;;;5032505;28;20026;-69
2022/10/06 08:46:59;;;;;;;7.05;4.70;;;16.20;99.90;;;;;;5032651;28;20378;-74
2022/10/06 08:49:32;;;;;;;5.40;4.60;;;16.20;99.90;;;;;;5032632;28;20029;-69
2022/10/06 08:52:16;;;;;;;9.68;4.85;;;16.40;99.90;;;;;;5032555;28;20454;-69
2022/10/06 08:54:50;;;;;;;7.03;5.20;;;16.50;99.90;;;;;;5032414;28;20104;-69
2022/10/06 08:57:25;;;;;;;7.05;4.20;;;16.40;99.90;;;;;;5033943;28;20484;-68
2022/10/06 08:59:54;;;;;;;9.77;4.10;;;16.40;99.90;;;;;;5036016;28;20057;-69
2022/10/06 09:02:32;;;;;;;9.60;4.75;;;16.40;99.90;;;;;;5035947;28;20044;-74
2022/10/06 09:05:03;;;;;;;6.93;3.78;;;16.50;99.90;;;;;;5035340;28;20032;-69
2022/10/06 09:07:48;;;;;;;11.75;4.68;;;16.60;99.90;;;;;;5035695;28;20076;-74
2022/10/06 09:10:35;;;;;;;9.40;4.72;;;16.70;99.90;;;;;;5035928;28;20501;-74
2022/10/06 09:13:13;;;;;;;9.60;4.78;;;16.70;99.90;;;;;;5035767;28;20095;-69
2022/10/06 09:15:44;;;;;;;13.57;4.68;;;16.80;99.90;;;;;;5017924;28;20044;-71
2022/10/06 09:18:21;;;;;;;6.28;4.25;;;16.80;99.90;;;;;;5035597;28;20029;-74
2022/10/06 09:20:52;;;;;;;7.25;5.20;;;16.90;99.90;;;;;;5035347;28;20121;-69
2022/10/06 09:26:04;;;;;;;5.93;4.20;;;16.90;99.90;;;;;;5035478;28;20271;-69
2022/10/06 09:28:30;;;;;;;5.22;4.18;;;17.00;99.90;;;;;;5035534;28;20025;-69
2022/10/06 09:30:59;;;;;;;7.15;4.22;;;17.00;99.90;;;;;;5035344;28;20026;-74
2022/10/06 09:33:30;;;;;;;6.57;4.22;;;17.10;99.90;;;;;;5017627;28;20167;-69
2022/10/06 09:36:10;;;;;;;6.88;4.15;;;17.20;99.90;;;;;;5017662;28;20029;-68
2022/10/06 09:38:56;;;;;;;5.72;4.00;;;17.20;99.90;;;;;;5035398;28;20511;-74
2022/10/06 09:41:36;;;;;;;4.70;4.05;;;17.20;99.90;;;;;;5027134;28;20025;-69
2022/10/06 09:44:20;;;;;;;7.60;4.53;;;17.30;99.90;;;;;;5035317;28;20026;-69
2022/10/06 09:46:46;;;;;;;10.18;5.63;;;17.40;99.90;;;;;;5035284;28;20029;-74
2022/10/06 09:49:22;;;;;;;8.75;3.97;;;17.40;99.90;;;;;;5017461;28;20380;-69
2022/10/06 09:51:58;;;;;;;8.60;4.07;;;17.60;99.90;;;;;;5035105;28;20051;-69
2022/10/06 09:54:24;;;;;;;8.20;4.38;;;17.60;99.90;;;;;;5034914;28;20044;-69
2022/10/06 09:56:52;;;;;;;16.75;5.20;;;17.70;99.90;;;;;;5035090;28;20029;-74
2022/10/06 09:59:21;;;;;;;5.75;4.15;;;17.80;99.90;;;;;;5034885;28;20092;-74
2022/10/06 10:01:54;;;;;;;6.70;4.80;;;17.80;99.90;;;;;;5034890;28;20061;-75
2022/10/06 10:04:40;;;;;;;8.55;4.13;;;17.90;99.90;;;;;;5034605;28;20028;-74
2022/10/06 10:07:23;;;;;;;7.18;4.95;;;18.00;99.90;;;;;;5017137;28;20025;-74
2022/10/06 10:09:49;;;;;;;7.00;4.10;;;18.10;99.10;;;;;;5033779;28;20017;-69
2022/10/06 10:12:23;;;;;;;6.22;4.57;;;18.10;99.80;;;;;;5034671;28;20018;-74
2022/10/06 10:14:50;;;;;;;9.18;4.60;;;18.00;97.10;;;;;;5034661;28;20037;-69
2022/10/06 10:17:18;;;;;;;6.03;4.32;;;18.10;98.70;;;;;;5034507;28;20083;-75
2022/10/06 10:19:51;;;;;;;10.73;4.95;;;18.10;98.50;;;;;;5034399;28;20025;-74
2022/10/06 10:22:32;;;;;;;8.32;4.80;;;18.20;97.20;;;;;;5034467;28;20025;-69
2022/10/06 10:25:03;;;;;;;7.50;4.68;;;18.10;98.30;;;;;;5016280;28;20422;-74
2022/10/06 10:28:02;;;;;;;9.40;4.72;;;18.10;99.60;;;;;;5030575;28;20032;-74
2022/10/06 10:30:31;;;;;;;4.30;3.90;;;18.20;99.90;;;;;;5040868;28;20363;-74
2022/10/06 10:33:02;;;;;;;7.45;4.40;;;18.30;99.90;;;;;;5018103;28;20045;-69
2022/10/06 10:35:40;;;;;;;6.90;4.97;;;18.40;99.90;;;;;;5021834;28;20042;-69
2022/10/06 10:38:14;;;;;;;6.43;4.22;;;18.60;99.90;;;;;;5027871;28;20029;-69
2022/10/06 10:40:47;;;;;;;7.80;5.15;;;18.60;99.70;;;;;;5008394;28;20034;-69
2022/10/06 10:43:13;;;;;;;8.07;4.40;;;18.70;99.90;;;;;;5026719;28;20022;-72
2022/10/06 10:46:06;;;;;;;6.15;4.75;;;18.80;98.00;;;;;;5032785;28;20475;-69
2022/10/06 10:48:35;;;;;;;8.98;5.18;;;18.90;97.00;;;;;;5014083;28;20171;-75
2022/10/06 10:51:13;;;;;;;7.13;4.55;;;18.90;96.80;;;;;;5031440;28;20491;-69
2022/10/06 10:53:56;;;;;;;5.55;4.60;;;18.80;93.90;;;;;;5035481;28;20044;-69
2022/10/06 10:56:25;;;;;;;181.50;91.57;;;18.80;95.30;;;;;;5032359;28;20026;-69
2022/10/06 10:59:06;;;;;;;261.75;134.75;;;18.90;95.90;;;;;;5025694;28;20052;-75
2022/10/06 11:01:41;;;;;;;99.65;52.10;;;19.00;95.80;;;;;;5032259;28;20017;-75
2022/10/06 11:04:11;;;;;;;129.73;65.28;;;19.00;93.80;;;;;;5013628;28;20428;-74
2022/10/06 11:07:02;;;;;;;33.90;15.32;;;19.00;94.70;;;;;;5032086;28;20026;-75
2022/10/06 11:09:39;;;;;;;8.70;4.82;;;19.10;95.00;;;;;;5014063;28;20033;-75
2022/10/06 11:12:23;;;;;;;11.38;6.22;;;19.30;93.10;;;;;;5014611;28;20033;-69
2022/10/06 11:15:00;;;;;;;6.55;3.67;;;19.40;91.80;;;;;;5025534;28;20116;-75
2022/10/06 11:17:45;;;;;;;8.15;5.68;;;19.40;91.00;;;;;;5011353;28;20086;-75
2022/10/06 11:20:36;;;;;;;9.85;4.82;;;19.30;92.20;;;;;;5030549;28;20124;-75
2022/10/06 11:23:32;;;;;;;8.55;4.60;;;19.40;90.30;;;;;;5026356;28;20030;-75
2022/10/06 11:26:14;;;;;;;6.40;4.00;;;19.30;89.80;;;;;;5031965;28;20025;-74
2022/10/06 11:28:51;;;;;;;8.97;3.33;;;19.20;89.40;;;;;;5013790;28;20490;-75
2022/10/06 11:31:29;;;;;;;6.68;4.13;;;19.00;91.10;;;;;;5031868;28;20033;-69
2022/10/06 11:33:58;;;;;;;5.63;3.28;;;19.00;94.90;;;;;;5031103;28;20045;-69
2022/10/06 11:36:33;;;;;;;6.18;3.65;;;19.00;93.70;;;;;;5024927;28;20042;-69
2022/10/06 11:39:29;;;;;;;4.05;3.40;;;19.00;94.50;;;;;;5027424;28;20025;-75
2022/10/06 11:42:13;;;;;;;9.23;3.42;;;19.10;96.40;;;;;;5020061;28;20033;-75
2022/10/06 11:44:46;;;;;;;4.75;3.53;;;19.00;95.30;;;;;;5035972;28;20029;-75
2022/10/06 11:47:21;;;;;;;3.97;3.63;;;18.90;95.60;;;;;;5041587;28;20017;-75
2022/10/06 11:49:52;;;;;;;8.07;4.28;;;18.90;96.50;;;;;;5023098;28;20029;-75
2022/10/06 11:52:18;;;;;;;7.65;3.72;;;18.90;95.90;;;;;;5040080;28;20072;-76
2022/10/06 11:54:44;;;;;;;3.83;2.75;;;19.00;96.50;;;;;;5042930;28;20062;-75
2022/10/06 11:57:30;;;;;;;5.13;3.42;;;19.10;98.90;;;;;;5020944;28;20074;-75
2022/10/06 12:00:16;;;;;;;6.38;3.95;;;19.20;96.80;;;;;;5040148;28;20360;-70
2022/10/06 12:02:43;;;;;;;4.40;3.00;;;19.30;95.20;;;;;;5042311;28;20017;-76
2022/10/06 12:05:08;;;;;;;3.60;3.13;;;19.30;93.90;;;;;;5023770;28;20028;-69
2022/10/06 12:07:53;;;;;;;4.90;3.03;;;19.40;92.10;;;;;;5040003;28;20548;-67
2022/10/06 12:10:28;;;;;;;5.55;3.72;;;19.50;93.00;;;;;;5036760;28;20121;-67
2022/10/06 12:13:15;;;;;;;3.47;2.97;;;19.50;92.10;;;;;;5037716;28;20049;-67
2022/10/06 12:15:55;;;;;;;6.32;3.20;;;19.50;91.40;;;;;;5039225;28;20076;-67
2022/10/06 12:18:26;;;;;;;3.70;3.08;;;19.70;93.60;;;;;;5038482;28;20441;-67
2022/10/06 12:21:08;;;;;;;3.53;3.15;;;19.50;88.60;;;;;;5034453;28;20053;-67
2022/10/06 12:23:44;;;;;;;3.60;3.30;;;19.40;88.80;;;;;;5020910;28;20028;-73
2022/10/06 12:26:50;;;;;;;6.85;3.85;;;19.30;90.10;;;;;;5015355;28;20084;-67
2022/10/06 12:29:31;;;;;;;7.40;3.75;;;19.20;91.40;;;;;;5032950;28;20124;-67
2022/10/06 12:32:04;;;;;;;8.25;3.85;;;19.20;92.60;;;;;;5028690;28;20040;-68
2022/10/06 12:34:39;;;;;;;9.05;3.53;;;19.10;94.00;;;;;;5025419;28;20480;-67
2022/10/06 12:37:29;;;;;;;5.53;3.50;;;19.20;96.60;;;;;;5026193;28;20426;-68
2022/10/06 12:40:33;;;;;;;8.02;3.92;;;19.20;95.00;;;;;;5038180;28;20565;-67
2022/10/06 12:43:17;;;;;;;7.43;3.60;;;19.20;96.10;;;;;;5039206;28;20029;-68
2022/10/06 12:45:47;;;;;;;7.40;2.95;;;19.20;95.10;;;;;;5024146;28;20094;-74
2022/10/06 12:48:26;;;;;;;8.15;3.97;;;19.30;97.30;;;;;;5024947;28;20033;-68
2022/10/06 12:51:11;;;;;;;5.97;3.67;;;19.40;97.80;;;;;;5040090;28;20036;-68
2022/10/06 12:53:44;;;;;;;4.95;3.72;;;19.30;97.50;;;;;;5041158;28;20128;-68
2022/10/06 12:56:35;;;;;;;5.00;3.17;;;19.20;97.90;;;;;;5026178;28;20115;-69
2022/10/06 12:59:26;;;;;;;3.92;3.15;;;19.20;99.40;;;;;;5043687;28;20029;-68
2022/10/06 13:01:58;;;;;;;6.82;3.03;;;19.10;99.70;;;;;;5035231;28;20041;-68
2022/10/06 13:04:31;;;;;;;5.63;3.08;;;18.90;99.90;;;;;;5034664;28;20018;-68
2022/10/06 13:06:57;;;;;;;4.55;3.05;;;18.80;99.90;;;;;;5016638;28;20091;-68
2022/10/06 13:09:22;;;;;;;6.13;3.15;;;18.70;99.90;;;;;;5034518;28;20014;-68
2022/10/06 13:11:48;;;;;;;4.30;2.88;;;18.70;99.90;;;;;;5034790;28;20113;-68
2022/10/06 13:14:14;;;;;;;6.30;2.90;;;18.70;99.90;;;;;;5034073;28;20081;-68